Time;durP1;ratioP1;P1;durP2;ratioP2;P2;SDS_P1;SDS_P2;PMS_P1;PMS_P2;Temp;Humidity;BMP_temperature;BMP_pressure;BME280_temperature;BME280_humidity;BME280_pressure;Samples;Min_cycle;Max_cycle;Signal;HPM_P1;HPM_P2
2024/02/29 00:01:18;;;;;;;24.38;12.77;;;;;;;7.03;100.00;101480.44;6091282;19;20014;-80
2024/02/29 00:05:45;;;;;;;22.75;12.38;;;;;;;7.02;100.00;101476.06;6092334;19;20030;-81
2024/02/29 00:07:54;;;;;;;28.80;14.00;;;;;;;7.03;100.00;101476.97;6096867;19;20007;-81
2024/02/29 00:10:02;;;;;;;23.80;12.40;;;;;;;7.04;100.00;101473.44;6100045;19;20035;-80
2024/02/29 00:12:09;;;;;;;29.10;14.15;;;;;;;7.06;100.00;101468.16;6097598;19;20010;-78
2024/02/29 00:14:13;;;;;;;23.95;12.45;;;;;;;6.99;100.00;101467.44;6102731;19;20115;-80
2024/02/29 00:42:31;;;;;;;24.73;12.55;;;;;;;6.94;100.00;101446.59;6110773;19;20014;-75
2024/02/29 01:04:26;;;;;;;22.63;11.77;;;;;;;6.98;100.00;101422.16;6072178;19;20075;-76
2024/02/29 01:07:00;;;;;;;18.73;10.23;;;;;;;6.99;100.00;101409.94;6103328;19;20018;-76
2024/02/29 01:16:12;;;;;;;21.42;10.82;;;;;;;7.01;100.00;101400.34;6082268;19;20050;-76
2024/02/29 01:19:15;;;;;;;20.75;10.13;;;;;;;7.05;100.00;101396.75;6081403;19;20134;-76
2024/02/29 01:29:02;;;;;;;21.88;10.18;;;;;;;7.05;100.00;101381.09;6109040;19;20014;-76
2024/02/29 01:45:29;;;;;;;;;;;;;;;;;;;;;
2024/02/29 01:51:57;;;;;;;22.92;10.35;;;;;;;7.16;100.00;101349.53;6082893;19;20021;-75
2024/02/29 01:55:27;;;;;;;;;;;;;;;;;;;;;
2024/02/29 02:42:27;;;;;;;21.50;11.30;;;;;;;6.91;100.00;101291.63;6002179;19;2004737;-76
2024/02/29 02:44:40;;;;;;;28.95;13.65;;;;;;;6.91;100.00;101289.88;6083652;19;20449;-77
2024/02/29 02:47:08;;;;;;;28.73;12.35;;;;;;;6.94;100.00;101288.97;6085939;19;20045;-76
2024/02/29 02:49:30;;;;;;;;;;;;;;;;;;;;;
2024/02/29 02:51:37;;;;;;;27.30;12.90;;;;;;;6.96;100.00;101280.22;6085011;19;20038;-75
2024/02/29 02:53:46;;;;;;;25.02;11.20;;;;;;;6.96;100.00;101285.44;6081179;19;20334;-77
2024/02/29 02:55:53;;;;;;;28.63;12.82;;;;;;;6.97;100.00;101281.91;6076666;19;20017;-76
2024/02/29 02:58:02;;;;;;;29.98;13.93;;;;;;;6.99;100.00;101281.91;6083935;19;20518;-75
2024/02/29 03:00:15;;;;;;;26.65;13.10;;;;;;;6.98;100.00;101267.13;6084063;19;20006;-76
2024/02/29 03:02:21;;;;;;;26.15;12.70;;;;;;;7.00;100.00;101263.59;6088287;19;20017;-75
2024/02/29 03:04:28;;;;;;;27.60;13.90;;;;;;;6.97;100.00;101260.16;6087451;19;20487;-75
2024/02/29 03:06:36;;;;;;;26.33;13.30;;;;;;;6.97;100.00;101257.56;6087193;19;20590;-76
2024/02/29 03:08:40;;;;;;;29.52;13.32;;;;;;;6.96;100.00;101256.69;6093559;19;20458;-76
2024/02/29 03:10:48;;;;;;;28.83;14.75;;;;;;;6.95;100.00;101254.97;6094114;19;20053;-79
2024/02/29 03:12:53;;;;;;;30.27;15.75;;;;;;;6.91;100.00;101252.44;6094910;19;20007;-79
2024/02/29 03:14:59;;;;;;;29.75;12.93;;;;;;;6.95;100.00;101254.97;6097919;19;20011;-80
2024/02/29 03:17:06;;;;;;;28.63;15.02;;;;;;;6.93;100.00;101241.09;6096846;19;20010;-79
2024/02/29 03:19:11;;;;;;;31.77;13.65;;;;;;;6.95;100.00;101244.53;6103173;19;20079;-79
2024/02/29 03:21:14;;;;;;;36.55;14.50;;;;;;;6.94;100.00;101247.16;6098761;19;20066;-79
2024/02/29 03:23:20;;;;;;;30.38;14.20;;;;;;;6.99;100.00;101245.31;6098840;19;20014;-78
2024/02/29 03:25:28;;;;;;;26.90;13.98;;;;;;;6.97;100.00;101242.72;6095251;19;20456;-76
2024/02/29 03:27:55;;;;;;;34.10;14.30;;;;;;;6.96;100.00;101240.16;6087971;19;20013;-77
2024/02/29 03:30:05;;;;;;;26.98;15.30;;;;;;;6.98;100.00;101230.56;6003882;19;2005183;-77
2024/02/29 03:32:16;;;;;;;27.58;15.35;;;;;;;6.95;100.00;101226.25;6088976;19;20007;-76
2024/02/29 03:34:22;;;;;;;33.03;15.45;;;;;;;6.92;100.00;101212.34;6089222;19;20027;-77
2024/02/29 03:36:27;;;;;;;24.73;12.93;;;;;;;6.95;100.00;101207.97;6082345;19;20146;-77
2024/02/29 03:38:37;;;;;;;27.13;14.95;;;;;;;6.97;100.00;101216.59;6085223;19;20047;-76
2024/02/29 03:40:42;;;;;;;34.75;13.52;;;;;;;7.00;100.00;101218.28;6093350;19;20002;-78
2024/02/29 03:42:50;;;;;;;33.13;15.43;;;;;;;6.95;100.00;101217.53;6096638;19;20015;-79
2024/02/29 03:44:55;;;;;;;26.42;14.38;;;;;;;6.97;100.00;101215.75;6095075;19;20002;-79
2024/02/29 03:47:00;;;;;;;32.03;15.02;;;;;;;7.00;100.00;101205.22;6094956;19;20003;-79
2024/02/29 03:49:08;;;;;;;30.08;13.57;;;;;;;6.97;100.00;101215.75;6087301;19;20078;-75
2024/02/29 03:51:15;;;;;;;32.45;15.15;;;;;;;6.99;100.00;101199.16;6087287;19;20029;-76
2024/02/29 03:53:21;;;;;;;33.20;15.95;;;;;;;6.98;100.00;101200.06;6085212;19;20010;-77
2024/02/29 03:55:26;;;;;;;34.88;15.88;;;;;;;6.97;100.00;101200.91;6086662;19;20441;-78
2024/02/29 03:57:32;;;;;;;31.85;15.48;;;;;;;6.98;100.00;101196.59;6080410;19;20355;-77
2024/02/29 03:59:43;;;;;;;34.53;15.35;;;;;;;6.96;100.00;101183.53;6085386;19;20473;-79
2024/02/29 04:01:52;;;;;;;33.72;15.93;;;;;;;7.00;100.00;101174.75;6084356;19;20014;-78
2024/02/29 04:03:57;;;;;;;29.80;16.20;;;;;;;7.02;100.00;101179.94;6084068;19;20029;-76
2024/02/29 04:06:03;;;;;;;34.08;16.13;;;;;;;7.02;100.00;101170.34;6086962;19;20025;-79
2024/02/29 04:08:13;;;;;;;31.52;15.13;;;;;;;6.99;100.00;101178.25;6082017;19;19995;-76
2024/02/29 04:10:19;;;;;;;26.70;13.85;;;;;;;6.97;100.00;101168.72;6085423;19;20021;-78
2024/02/29 04:12:24;;;;;;;30.20;13.55;;;;;;;7.02;100.00;101172.94;6085546;19;20006;-78
2024/02/29 04:14:28;;;;;;;24.50;11.40;;;;;;;7.04;100.00;101175.53;6085466;19;20011;-77
2024/02/29 04:16:40;;;;;;;25.13;15.07;;;;;;;7.03;100.00;101172.06;6081450;19;20006;-76
2024/02/29 04:18:45;;;;;;;28.88;14.68;;;;;;;7.07;100.00;101165.03;6083685;19;20102;-77
2024/02/29 04:20:51;;;;;;;28.75;14.07;;;;;;;7.07;100.00;101169.41;6080702;19;20018;-77
2024/02/29 04:22:58;;;;;;;24.80;12.77;;;;;;;7.09;100.00;101168.47;6084050;19;20013;-76
2024/02/29 04:25:05;;;;;;;29.75;14.93;;;;;;;7.06;100.00;101159.81;6081363;19;20006;-77
2024/02/29 04:27:22;;;;;;;24.65;14.25;;;;;;;7.07;100.00;101158.94;6084160;19;20078;-76
2024/02/29 04:29:27;;;;;;;26.48;14.65;;;;;;;7.05;100.00;101153.72;6083996;19;20130;-76
2024/02/29 04:31:38;;;;;;;27.10;14.05;;;;;;;7.07;100.00;101158.94;6085166;19;20034;-76
2024/02/29 04:33:50;;;;;;;25.58;12.95;;;;;;;7.11;100.00;101157.97;6079347;19;20487;-76
2024/02/29 04:36:01;;;;;;;25.70;14.05;;;;;;;7.13;100.00;101158.81;6083551;19;20720;-76
2024/02/29 04:38:06;;;;;;;25.45;14.55;;;;;;;7.11;100.00;101160.59;6081084;19;20003;-76
2024/02/29 04:40:13;;;;;;;26.65;14.43;;;;;;;7.14;100.00;101148.34;6084598;19;20711;-78
2024/02/29 04:42:37;;;;;;;26.70;14.00;;;;;;;7.11;100.00;101144.91;6001523;19;2004778;-75
2024/02/29 04:44:53;;;;;;;27.02;13.05;;;;;;;7.17;100.00;101144.78;6082260;19;20116;-76
2024/02/29 04:47:28;;;;;;;27.08;13.73;;;;;;;7.16;100.00;101146.56;6082874;19;20083;-75
2024/02/29 04:49:42;;;;;;;28.77;14.90;;;;;;;7.16;100.00;101137.81;6078614;19;20033;-75
2024/02/29 04:51:54;;;;;;;28.80;12.27;;;;;;;7.19;100.00;101143.88;6082170;19;20361;-75
2024/02/29 04:53:59;;;;;;;24.20;12.52;;;;;;;7.17;100.00;101135.19;6078990;19;20013;-76
2024/02/29 04:56:14;;;;;;;27.83;14.60;;;;;;;7.19;100.00;101132.56;6087101;19;20014;-76
2024/02/29 04:58:40;;;;;;;24.30;12.82;;;;;;;7.21;100.00;101128.13;6084572;19;20006;-76
2024/02/29 05:00:54;;;;;;;24.20;11.00;;;;;;;7.21;100.00;101131.63;5973498;19;2004637;-76
2024/02/29 05:03:12;;;;;;;25.13;13.45;;;;;;;7.23;100.00;101137.66;6083280;19;20463;-76
2024/02/29 05:05:37;;;;;;;29.33;12.20;;;;;;;7.25;100.00;101128.03;6082505;19;20007;-78
2024/02/29 05:07:55;;;;;;;22.15;11.02;;;;;;;7.25;100.00;101129.81;6082526;19;20006;-77
2024/02/29 05:10:14;;;;;;;25.17;13.13;;;;;;;7.25;100.00;101117.59;6081318;19;20010;-77
2024/02/29 05:12:34;;;;;;;24.83;11.27;;;;;;;7.23;100.00;101118.50;6084584;19;20038;-77
2024/02/29 05:14:40;;;;;;;21.90;11.02;;;;;;;7.32;100.00;101126.16;6080213;19;20018;-78
2024/02/29 05:16:54;;;;;;;22.88;12.50;;;;;;;7.31;100.00;101119.19;6084586;19;20066;-78
2024/02/29 05:19:15;;;;;;;26.02;12.85;;;;;;;7.26;100.00;101110.59;5978939;19;2004744;-76
2024/02/29 05:21:27;;;;;;;24.35;14.75;;;;;;;7.24;100.00;101115.00;6082714;19;20016;-76
2024/02/29 05:23:44;;;;;;;25.35;12.00;;;;;;;7.26;100.00;101119.28;6079264;19;20484;-77
2024/02/29 05:25:47;;;;;;;26.13;13.82;;;;;;;7.23;100.00;101113.28;6072195;19;20014;-76
2024/02/29 05:27:59;;;;;;;24.58;13.20;;;;;;;7.27;100.00;101109.72;6082343;19;20382;-77
2024/02/29 05:30:13;;;;;;;24.38;12.35;;;;;;;7.27;100.00;101109.72;6080284;19;20010;-75
2024/02/29 05:32:23;;;;;;;27.92;13.25;;;;;;;7.24;100.00;101101.91;6084740;19;20085;-75
2024/02/29 05:34:42;;;;;;;24.20;12.70;;;;;;;7.21;100.00;101102.00;6083798;19;20462;-78
2024/02/29 05:36:51;;;;;;;28.23;12.32;;;;;;;7.24;100.00;101099.31;6089070;19;20458;-77
2024/02/29 05:38:56;;;;;;;29.88;13.82;;;;;;;7.22;100.00;101096.75;6089991;19;20029;-77
2024/02/29 05:41:03;;;;;;;26.92;13.07;;;;;;;7.18;100.00;101089.84;6089953;19;20158;-80
2024/02/29 05:43:08;;;;;;;23.90;11.45;;;;;;;7.24;100.00;101094.09;6082119;19;20358;-79
2024/02/29 05:45:13;;;;;;;23.23;13.05;;;;;;;7.20;100.00;101093.31;6087184;19;20476;-78
2024/02/29 05:47:22;;;;;;;26.35;12.07;;;;;;;7.23;100.00;101095.00;6087859;19;20017;-79
2024/02/29 05:49:30;;;;;;;23.15;12.90;;;;;;;7.24;100.00;101089.75;6090971;19;20163;-77
2024/02/29 05:51:35;;;;;;;24.67;13.80;;;;;;;7.22;100.00;101088.06;6088385;19;20562;-78
2024/02/29 05:53:44;;;;;;;24.42;13.45;;;;;;;7.24;100.00;101088.84;6085868;19;20006;-78
2024/02/29 05:55:56;;;;;;;24.88;14.02;;;;;;;7.24;100.00;101083.63;6092339;19;20042;-78
2024/02/29 05:58:03;;;;;;;26.52;12.93;;;;;;;7.24;100.00;101086.25;6092445;19;20010;-77
2024/02/29 06:00:08;;;;;;;26.23;12.48;;;;;;;7.30;100.00;101078.28;6089412;19;20576;-76
2024/02/29 06:02:13;;;;;;;29.70;13.52;;;;;;;7.27;100.00;101075.75;6090092;19;20428;-77
2024/02/29 06:04:20;;;;;;;25.50;13.52;;;;;;;7.26;100.00;101072.25;6094153;19;20033;-78
2024/02/29 06:06:26;;;;;;;26.33;13.57;;;;;;;7.26;100.00;101082.69;6094824;19;20028;-78
2024/02/29 06:08:32;;;;;;;23.13;12.30;;;;;;;7.34;100.00;101076.44;6095221;19;20013;-78
2024/02/29 06:10:41;;;;;;;28.30;14.98;;;;;;;7.27;100.00;101083.59;6095196;19;20390;-79
2024/02/29 06:12:48;;;;;;;25.92;12.35;;;;;;;7.25;100.00;101077.53;6096052;19;20067;-80
2024/02/29 06:15:04;;;;;;;25.52;13.77;;;;;;;7.26;100.00;101080.09;6098273;19;20034;-82
2024/02/29 06:17:17;;;;;;;28.08;14.20;;;;;;;7.21;100.00;101083.69;6093933;19;20242;-80
2024/02/29 06:19:22;;;;;;;28.05;12.55;;;;;;;7.21;100.00;101081.09;6087491;19;20007;-81
2024/02/29 06:21:28;;;;;;;26.83;13.27;;;;;;;7.19;100.00;101081.13;6089902;19;20029;-80
2024/02/29 06:23:36;;;;;;;27.40;13.75;;;;;;;7.18;100.00;101078.53;6091865;19;20027;-78
2024/02/29 06:25:48;;;;;;;22.98;13.93;;;;;;;7.14;100.00;101076.91;6083487;19;20011;-78
2024/02/29 06:28:06;;;;;;;24.52;14.55;;;;;;;7.13;100.00;101080.41;6086446;19;20017;-79
2024/02/29 06:30:35;;;;;;;27.35;14.25;;;;;;;7.16;100.00;101082.94;6080993;19;20002;-79
2024/02/29 06:33:00;;;;;;;23.17;13.80;;;;;;;7.16;100.00;101076.00;6082909;19;20015;-79
2024/02/29 06:35:17;;;;;;;26.10;13.68;;;;;;;7.21;100.00;101075.84;6086302;19;20010;-77
2024/02/29 06:37:22;;;;;;;25.60;13.98;;;;;;;7.17;100.00;101080.31;6086530;19;20641;-77
2024/02/29 06:39:42;;;;;;;24.90;13.50;;;;;;;7.18;100.00;101071.56;6087048;19;20003;-76
2024/02/29 06:41:54;;;;;;;28.58;14.68;;;;;;;7.16;100.00;101072.50;5985264;19;2005231;-79
2024/02/29 06:43:59;;;;;;;28.55;12.65;;;;;;;7.15;100.00;101074.25;6087826;19;20078;-78
2024/02/29 06:46:06;;;;;;;22.63;12.98;;;;;;;7.17;100.00;101071.63;6086181;19;20008;-79
2024/02/29 06:48:12;;;;;;;22.50;12.35;;;;;;;7.17;100.00;101059.41;6086241;19;20955;-79
2024/02/29 06:50:17;;;;;;;28.63;13.68;;;;;;;7.19;100.00;101059.38;6085017;19;20078;-79
2024/02/29 06:52:22;;;;;;;26.40;12.52;;;;;;;7.19;100.00;101055.00;6083361;19;20090;-79
2024/02/29 06:54:29;;;;;;;19.55;10.77;;;;;;;7.22;100.00;101054.06;6085497;19;20086;-80
2024/02/29 06:56:34;;;;;;;26.50;14.55;;;;;;;7.18;100.00;101058.50;6085071;19;20019;-80
2024/02/29 06:58:41;;;;;;;26.38;12.73;;;;;;;7.21;100.00;101054.94;6085312;19;20686;-80
2024/02/29 07:00:47;;;;;;;28.40;14.15;;;;;;;7.22;100.00;101048.84;6087558;19;20443;-80
2024/02/29 07:02:50;;;;;;;24.95;13.38;;;;;;;7.22;100.00;101059.31;6084345;19;20011;-80
2024/02/29 07:04:57;;;;;;;25.48;13.20;;;;;;;7.22;100.00;101057.53;6084708;19;20018;-77
2024/02/29 07:07:03;;;;;;;24.65;12.25;;;;;;;7.20;100.00;101050.63;6086207;19;20570;-79
2024/02/29 07:09:08;;;;;;;28.13;15.02;;;;;;;7.21;100.00;101047.09;6085904;19;20006;-77
2024/02/29 07:11:11;;;;;;;27.90;13.15;;;;;;;7.26;100.00;101050.47;6086751;19;20031;-79
2024/02/29 07:13:17;;;;;;;26.45;13.32;;;;;;;7.30;100.00;101054.75;6086288;19;20070;-76
2024/02/29 07:15:30;;;;;;;25.40;13.80;;;;;;;7.28;100.00;101045.22;6087900;19;20491;-76
2024/02/29 07:17:35;;;;;;;26.98;12.30;;;;;;;7.34;100.00;101042.47;6085142;19;20010;-75
2024/02/29 07:19:40;;;;;;;24.15;12.98;;;;;;;7.36;100.00;101045.91;6084289;19;20006;-75
2024/02/29 07:21:45;;;;;;;26.15;12.80;;;;;;;7.34;100.00;101050.31;6085817;19;20006;-75
2024/02/29 07:23:50;;;;;;;25.50;13.57;;;;;;;7.37;100.00;101055.44;6085412;19;20018;-77
2024/02/29 07:25:56;;;;;;;25.30;13.38;;;;;;;7.36;100.00;101045.91;6086313;19;20396;-76
2024/02/29 07:28:03;;;;;;;25.65;12.82;;;;;;;7.39;100.00;101056.28;6080824;19;21152;-74
2024/02/29 07:30:10;;;;;;;22.38;11.68;;;;;;;7.41;100.00;101041.44;6081336;19;20588;-76
2024/02/29 07:32:17;;;;;;;24.65;12.30;;;;;;;7.42;100.00;101049.22;6081540;19;20018;-75
2024/02/29 07:34:22;;;;;;;23.58;12.18;;;;;;;7.42;100.00;101041.38;6082815;19;20091;-74
2024/02/29 07:36:28;;;;;;;29.98;13.50;;;;;;;7.43;100.00;101048.34;6084022;19;20010;-73
2024/02/29 07:38:33;;;;;;;30.90;14.27;;;;;;;7.44;100.00;101049.19;6085137;19;20026;-75
2024/02/29 07:40:37;;;;;;;31.63;13.73;;;;;;;7.45;100.00;101043.06;6081184;19;20019;-76
2024/02/29 07:42:42;;;;;;;25.60;14.55;;;;;;;7.46;100.00;101042.16;6084102;19;20012;-77
2024/02/29 07:44:47;;;;;;;25.80;12.43;;;;;;;7.40;100.00;101031.88;6084677;19;20091;-78
2024/02/29 07:46:54;;;;;;;28.15;13.75;;;;;;;7.46;100.00;101034.34;6083288;19;20018;-76
2024/02/29 07:49:02;;;;;;;27.88;12.88;;;;;;;7.53;100.00;101035.03;6083677;19;20011;-76
2024/02/29 07:51:08;;;;;;;25.40;13.65;;;;;;;7.45;100.00;101032.59;6080806;19;20003;-76
2024/02/29 07:53:13;;;;;;;25.52;13.60;;;;;;;7.48;100.00;101028.16;6080561;19;21070;-76
2024/02/29 07:55:18;;;;;;;25.20;12.90;;;;;;;7.53;100.00;101027.19;6081153;19;20011;-75
2024/02/29 07:57:24;;;;;;;29.05;13.73;;;;;;;7.52;100.00;101033.31;6081786;19;20416;-77
2024/02/29 07:59:30;;;;;;;24.55;13.30;;;;;;;7.54;100.00;101034.16;6078142;19;20018;-75
2024/02/29 08:01:36;;;;;;;28.23;14.77;;;;;;;7.49;100.00;101031.63;6077750;19;20013;-77
2024/02/29 08:03:41;;;;;;;29.80;13.85;;;;;;;7.52;100.00;101031.56;6072646;19;20108;-74
2024/02/29 08:05:49;;;;;;;29.95;13.93;;;;;;;7.55;100.00;101028.84;6078644;19;20014;-75
2024/02/29 08:07:54;;;;;;;24.50;13.38;;;;;;;7.51;100.00;101035.06;6080697;19;20045;-77
2024/02/29 08:10:00;;;;;;;25.38;13.57;;;;;;;7.54;100.00;101027.16;6083064;19;20011;-75
2024/02/29 08:12:05;;;;;;;22.13;11.75;;;;;;;7.55;100.00;101028.84;6078468;19;20117;-75
2024/02/29 08:14:10;;;;;;;28.40;13.02;;;;;;;7.58;100.00;101025.31;6082624;19;20486;-75
2024/02/29 08:16:15;;;;;;;28.70;13.02;;;;;;;7.56;100.00;101032.34;6083009;19;20442;-74
2024/02/29 08:18:20;;;;;;;24.52;12.88;;;;;;;7.60;100.00;101029.59;6084715;19;20082;-73
2024/02/29 08:20:28;;;;;;;23.67;11.50;;;;;;;7.65;100.00;101029.50;6082454;19;20023;-72
2024/02/29 08:22:36;;;;;;;23.60;11.27;;;;;;;7.62;100.00;101026.97;6085519;19;20034;-73
2024/02/29 08:24:41;;;;;;;25.25;12.20;;;;;;;7.64;100.00;101019.94;6084270;19;20006;-74
2024/02/29 08:26:46;;;;;;;24.40;13.30;;;;;;;7.68;100.00;101024.19;6083589;19;20023;-73
2024/02/29 08:28:51;;;;;;;24.77;12.43;;;;;;;7.67;100.00;101027.72;6086285;19;20006;-73
2024/02/29 08:30:56;;;;;;;23.40;12.68;;;;;;;7.69;100.00;101025.91;6086158;19;20018;-76
2024/02/29 08:32:59;;;;;;;24.75;12.65;;;;;;;7.65;100.00;101032.09;6086495;19;20027;-74
2024/02/29 08:35:03;;;;;;;25.70;12.60;;;;;;;7.66;100.00;101029.47;6082708;19;20382;-74
2024/02/29 08:37:09;;;;;;;20.98;11.25;;;;;;;7.69;100.00;101026.78;6083218;19;20002;-73
2024/02/29 08:39:17;;;;;;;24.70;10.45;;;;;;;7.73;100.00;101026.69;6085858;19;20007;-73
2024/02/29 08:41:29;;;;;;;24.48;11.20;;;;;;;7.77;100.00;101018.72;6082803;19;20027;-73
2024/02/29 08:43:35;;;;;;;21.77;11.32;;;;;;;7.74;100.00;101016.19;6083572;19;20011;-73
2024/02/29 08:45:40;;;;;;;21.05;12.23;;;;;;;7.74;100.00;101013.59;6086820;19;20017;-73
2024/02/29 08:47:45;;;;;;;22.45;11.65;;;;;;;7.77;100.00;101012.66;6085964;19;20037;-74
2024/02/29 08:49:53;;;;;;;24.80;10.57;;;;;;;7.76;100.00;101009.13;6085206;19;20081;-73
2024/02/29 08:51:57;;;;;;;21.65;11.35;;;;;;;7.80;100.00;101012.56;6087383;19;20011;-73
2024/02/29 08:54:03;;;;;;;22.70;11.95;;;;;;;7.82;100.00;100998.53;6086622;19;20007;-73
2024/02/29 08:56:12;;;;;;;21.83;11.23;;;;;;;7.80;100.00;101005.56;6085613;19;20635;-72
2024/02/29 08:58:20;;;;;;;22.17;11.60;;;;;;;7.87;100.00;101001.91;6088389;19;20042;-72
2024/02/29 09:00:28;;;;;;;23.23;11.63;;;;;;;7.91;100.00;101003.50;6089575;19;20291;-72
2024/02/29 09:02:33;;;;;;;22.65;11.98;;;;;;;7.88;100.00;100993.13;6090693;19;20038;-73
2024/02/29 09:04:35;;;;;;;22.23;12.25;;;;;;;7.91;100.00;100995.66;6089817;19;20081;-72
2024/02/29 09:06:40;;;;;;;22.25;10.63;;;;;;;7.99;100.00;101011.16;6086230;19;20715;-73
2024/02/29 09:08:45;;;;;;;22.10;11.07;;;;;;;7.94;100.00;100997.34;6089450;19;20014;-71
2024/02/29 09:10:50;;;;;;;18.55;11.05;;;;;;;7.95;100.00;100987.72;6088917;19;20006;-72
2024/02/29 09:12:55;;;;;;;22.08;11.27;;;;;;;7.98;100.00;101000.72;6091070;19;20031;-72
2024/02/29 09:15:02;;;;;;;17.67;10.23;;;;;;;8.00;100.00;100991.06;6087521;19;20013;-72
2024/02/29 09:17:07;;;;;;;20.20;10.55;;;;;;;7.99;100.00;100984.13;6088738;19;20010;-72
2024/02/29 09:19:15;;;;;;;20.40;10.27;;;;;;;7.99;100.00;100985.00;6089047;19;20435;-72
2024/02/29 09:21:17;;;;;;;17.42;9.57;;;;;;;7.98;100.00;100980.66;6087996;19;20002;-72
2024/02/29 09:23:22;;;;;;;18.02;9.35;;;;;;;8.03;100.00;100978.78;6087149;19;20011;-73
2024/02/29 09:25:27;;;;;;;21.73;11.75;;;;;;;7.98;100.00;100982.41;6086225;19;20007;-73
2024/02/29 09:27:30;;;;;;;21.05;10.35;;;;;;;8.00;100.00;100983.22;6087910;19;20002;-75
2024/02/29 09:29:37;;;;;;;19.77;10.85;;;;;;;8.03;100.00;100970.03;6085174;19;20086;-72
2024/02/29 09:31:42;;;;;;;18.55;10.02;;;;;;;8.02;100.00;100989.28;6085910;19;20303;-73
2024/02/29 09:33:47;;;;;;;18.33;10.73;;;;;;;8.00;100.00;100976.22;6084402;19;20019;-72
2024/02/29 09:35:57;;;;;;;22.08;11.18;;;;;;;7.91;100.00;100982.56;6082872;19;20022;-73
2024/02/29 09:38:04;;;;;;;18.50;10.93;;;;;;;7.91;100.00;100972.09;6083528;19;20021;-73
2024/02/29 09:40:11;;;;;;;17.85;9.07;;;;;;;7.92;100.00;100978.19;6084560;19;20003;-73
2024/02/29 09:42:16;;;;;;;22.45;10.95;;;;;;;7.93;100.00;100971.22;6078088;19;20449;-72
2024/02/29 09:44:19;;;;;;;20.30;9.68;;;;;;;7.93;100.00;100969.47;6079006;19;20017;-74
2024/02/29 09:46:26;;;;;;;;;;;;;;;7.91;100.00;100961.66;6082870;19;20490;-72
2024/02/29 09:48:32;;;;;;;15.48;9.68;;;;;;;7.96;100.00;100963.28;6081405;19;19915;-73
2024/02/29 09:50:37;;;;;;;19.02;10.13;;;;;;;7.96;100.00;100964.13;6080322;19;20067;-71
2024/02/29 09:52:42;;;;;;;16.27;9.27;;;;;;;7.98;100.00;100961.47;6073796;19;20058;-71
2024/02/29 09:54:46;;;;;;;18.52;11.07;;;;;;;8.00;100.00;100964.91;6080063;19;20425;-71
2024/02/29 09:56:51;;;;;;;20.08;10.93;;;;;;;7.99;100.00;100971.91;6079317;19;20074;-72
2024/02/29 09:58:59;;;;;;;20.52;10.85;;;;;;;7.99;100.00;100960.59;6081763;19;20006;-72
2024/02/29 10:01:06;;;;;;;19.58;10.48;;;;;;;8.02;100.00;100969.19;6079846;19;20446;-72
2024/02/29 10:03:16;;;;;;;18.92;10.82;;;;;;;8.02;100.00;100963.97;6080739;19;20029;-71
2024/02/29 10:05:22;;;;;;;17.77;9.48;;;;;;;8.04;100.00;100962.16;6081271;19;20028;-72
2024/02/29 10:07:28;;;;;;;17.38;9.55;;;;;;;8.09;100.00;100960.28;6081722;19;20020;-71
2024/02/29 10:09:32;;;;;;;22.77;9.63;;;;;;;8.09;100.00;100969.91;6082902;19;20010;-72
2024/02/29 10:11:43;;;;;;;19.20;10.77;;;;;;;8.04;100.00;100956.06;6080674;19;20018;-72
2024/02/29 10:13:48;;;;;;;18.20;9.40;;;;;;;8.07;100.00;100956.84;6082241;19;20015;-72
2024/02/29 10:15:53;;;;;;;18.85;10.40;;;;;;;8.07;100.00;100950.75;6080017;19;20014;-73
2024/02/29 10:17:59;;;;;;;16.88;9.70;;;;;;;8.08;100.00;100945.50;6082189;19;20038;-72
2024/02/29 10:20:10;;;;;;;18.52;9.52;;;;;;;8.09;100.00;100948.97;6089534;19;20573;-72
2024/02/29 10:22:22;;;;;;;18.73;10.70;;;;;;;8.13;100.00;100946.19;6086445;19;20308;-72
2024/02/29 10:24:27;;;;;;;15.48;8.43;;;;;;;8.17;100.00;100946.97;5988513;19;2005145;-72
2024/02/29 10:26:32;;;;;;;15.40;8.60;;;;;;;8.20;100.00;100953.88;6086869;19;20023;-72
2024/02/29 10:28:37;;;;;;;17.20;8.80;;;;;;;8.18;100.00;100946.06;6085528;19;20002;-72
2024/02/29 10:30:42;;;;;;;16.67;9.10;;;;;;;8.22;100.00;100945.09;6088049;19;20014;-73
2024/02/29 10:32:49;;;;;;;16.92;9.70;;;;;;;8.19;100.00;100947.78;6088110;19;20016;-73
2024/02/29 10:34:51;;;;;;;22.63;10.25;;;;;;;8.26;100.00;100940.59;6087415;19;20011;-74
2024/02/29 10:37:02;;;;;;;14.50;8.43;;;;;;;8.19;100.00;100933.81;6085998;19;20083;-74
2024/02/29 10:39:08;;;;;;;12.38;7.90;;;;;;;8.24;100.00;100938.06;6088753;19;20529;-75
2024/02/29 10:41:15;;;;;;;15.52;8.10;;;;;;;8.22;100.00;100934.63;6087796;19;20020;-76
2024/02/29 10:43:22;;;;;;;14.13;8.00;;;;;;;8.20;100.00;100930.31;6085403;19;20078;-77
2024/02/29 10:45:33;;;;;;;12.73;7.20;;;;;;;8.21;100.00;100926.78;6086816;19;20475;-75
2024/02/29 10:47:38;;;;;;;15.80;8.48;;;;;;;8.20;100.00;100922.47;6087512;19;20045;-76
2024/02/29 10:49:49;;;;;;;15.80;10.07;;;;;;;8.24;100.00;100926.69;6088476;19;20034;-76
2024/02/29 10:52:02;;;;;;;18.42;9.60;;;;;;;8.22;100.00;100921.53;6085738;19;20009;-77
2024/02/29 10:54:11;;;;;;;16.00;8.35;;;;;;;8.31;100.00;100916.00;6087515;19;20514;-76
2024/02/29 10:56:23;;;;;;;14.93;8.93;;;;;;;8.27;100.00;100927.47;6084532;19;20092;-76
2024/02/29 10:58:33;;;;;;;15.45;8.40;;;;;;;8.24;100.00;100922.34;6086020;19;20010;-75
2024/02/29 11:00:39;;;;;;;17.83;9.07;;;;;;;8.36;100.00;100921.09;6085843;19;20542;-75
2024/02/29 11:02:46;;;;;;;15.30;10.07;;;;;;;8.32;100.00;100917.72;6087630;19;20074;-75
2024/02/29 11:04:54;;;;;;;19.33;10.38;;;;;;;8.32;100.00;100912.50;6086525;19;20019;-75
2024/02/29 11:07:05;;;;;;;14.38;8.05;;;;;;;8.32;100.00;100911.63;6087503;19;20016;-74
2024/02/29 11:09:10;;;;;;;18.50;10.38;;;;;;;8.33;100.00;100919.44;6083912;19;20006;-74
2024/02/29 11:11:16;;;;;;;16.95;10.00;;;;;;;8.30;100.00;100911.69;6083778;19;20021;-76
2024/02/29 11:13:21;;;;;;;20.38;10.60;;;;;;;8.25;100.00;100903.09;6086231;19;20281;-76
2024/02/29 11:15:28;;;;;;;16.55;9.57;;;;;;;8.30;100.00;100906.44;6087247;19;20006;-76
2024/02/29 11:17:36;;;;;;;17.58;9.93;;;;;;;8.35;100.00;100903.69;6086224;19;20399;-76
2024/02/29 11:19:41;;;;;;;19.80;10.73;;;;;;;8.31;100.00;100902.91;6086530;19;20017;-76
2024/02/29 11:21:58;;;;;;;20.00;10.80;;;;;;;8.34;100.00;100908.03;6086728;19;20344;-75
2024/02/29 11:24:07;;;;;;;15.93;9.38;;;;;;;8.32;100.00;100898.53;6085208;19;20621;-75
2024/02/29 11:26:13;;;;;;;19.48;10.18;;;;;;;8.37;100.00;100904.47;6084408;19;20030;-75
2024/02/29 11:28:18;;;;;;;18.45;9.95;;;;;;;8.39;100.00;100894.84;6083614;19;20011;-75
2024/02/29 11:30:24;;;;;;;18.70;10.98;;;;;;;8.44;100.00;100892.09;6083342;19;20387;-74
2024/02/29 11:32:32;;;;;;;20.10;10.95;;;;;;;8.39;100.00;100888.72;6081695;19;20010;-75
2024/02/29 11:34:37;;;;;;;17.52;10.60;;;;;;;8.40;100.00;100890.47;6082927;19;20003;-73
2024/02/29 11:36:43;;;;;;;19.80;10.60;;;;;;;8.45;100.00;100881.59;6081634;19;20026;-74
2024/02/29 11:38:48;;;;;;;16.10;9.82;;;;;;;8.44;100.00;100886.88;6073653;19;20729;-76
2024/02/29 11:40:53;;;;;;;18.20;10.02;;;;;;;8.42;100.00;100878.19;6082812;19;20038;-75
2024/02/29 11:43:01;;;;;;;20.50;11.27;;;;;;;8.39;100.00;100880.88;6082167;19;20019;-75
2024/02/29 11:45:08;;;;;;;20.20;11.00;;;;;;;8.40;100.00;100880.00;6083416;19;20030;-73
2024/02/29 11:47:13;;;;;;;19.85;10.85;;;;;;;8.39;100.00;100867.78;6081369;19;20498;-73
2024/02/29 11:49:19;;;;;;;20.95;12.45;;;;;;;8.32;100.00;100862.75;6084377;19;20006;-73
2024/02/29 11:51:24;;;;;;;19.08;10.93;;;;;;;8.37;100.00;100859.97;6087252;19;20018;-73
2024/02/29 11:53:29;;;;;;;19.85;10.52;;;;;;;8.32;100.00;100861.88;6085199;19;20006;-72
2024/02/29 11:55:34;;;;;;;21.25;12.32;;;;;;;8.32;100.00;100852.28;6091338;19;20475;-72